Cedar Park's Hourly Summary for Wednesday, May 16, 2018
Hour Temp
(f)
RH
(%)
Solar Rad.
(MJ/m2)
Rainfall
(in)
Wind
(mph)
5/16/2018 12:00 AM 72 78 0 0 2.76
5/16/2018 1:00 AM 71 79 0 0 2.14
5/16/2018 2:00 AM 69 82 0 0 0.86
5/16/2018 3:00 AM 67 82 0 0 0.86
5/16/2018 4:00 AM 66 90 0 0 0.35
5/16/2018 5:00 AM 63 95 0 0 0.1
5/16/2018 6:00 AM 63 97 0.01 0 0.1
5/16/2018 7:00 AM 63 97 0.32 0 0.04
5/16/2018 8:00 AM 71 94 1.1 0 0.24
5/16/2018 9:00 AM 74 75 1.4 0 0.89
5/16/2018 10:00 AM 79 72 2.44 0 0.98
5/16/2018 11:00 AM 83 57 2.96 0 1.58
5/16/2018 12:00 PM 87 48 3.25 0 1.58
5/16/2018 1:00 PM 89 39 3.35 0 2.14
5/16/2018 2:00 PM 89 39 3.35 0 4.41
5/16/2018 3:00 PM 91 39 3.19 0 4.41
5/16/2018 4:00 PM 92 35 2.4 0 2.11
5/16/2018 5:00 PM 92 33 2.37 0 1.85
5/16/2018 6:00 PM 92 32 1.72 0 1.77
5/16/2018 7:00 PM 92 32 0.36 0 1.56
5/16/2018 8:00 PM 89 45 0.14 0 0.68
5/16/2018 9:00 PM 85 53 0.01 0 0.2
5/16/2018 10:00 PM 78 60 0 0 0
5/16/2018 11:00 PM 76 63 0 0 0
Data Summary 78 63 28.37 0.00 1.32